sensor_id;sensor_type;location;lat;lon;timestamp;P1;durP1;ratioP1;P2;durP2;ratioP2
17864;SDS011;9058;52.018;4.202;2022-07-25T00:00:12;6.32;;;5.45;;
17864;SDS011;9058;52.018;4.202;2022-07-25T00:02:41;8.70;;;5.55;;
17864;SDS011;9058;52.018;4.202;2022-07-25T00:05:08;5.90;;;5.20;;
17864;SDS011;9058;52.018;4.202;2022-07-25T00:07:35;5.85;;;5.28;;
17864;SDS011;9058;52.018;4.202;2022-07-25T00:10:02;5.30;;;4.80;;
17864;SDS011;9058;52.018;4.202;2022-07-25T00:12:29;6.47;;;5.40;;
17864;SDS011;9058;52.018;4.202;2022-07-25T00:14:56;8.00;;;5.68;;
17864;SDS011;9058;52.018;4.202;2022-07-25T00:17:25;6.18;;;5.60;;
17864;SDS011;9058;52.018;4.202;2022-07-25T00:19:51;5.90;;;5.38;;
17864;SDS011;9058;52.018;4.202;2022-07-25T00:22:18;6.05;;;5.55;;
17864;SDS011;9058;52.018;4.202;2022-07-25T00:24:45;5.85;;;5.15;;
17864;SDS011;9058;52.018;4.202;2022-07-25T00:27:12;5.43;;;4.95;;
17864;SDS011;9058;52.018;4.202;2022-07-25T00:29:38;7.63;;;5.85;;
17864;SDS011;9058;52.018;4.202;2022-07-25T00:32:05;7.53;;;5.15;;
17864;SDS011;9058;52.018;4.202;2022-07-25T00:34:31;5.60;;;4.82;;
17864;SDS011;9058;52.018;4.202;2022-07-25T00:36:58;6.03;;;5.43;;
17864;SDS011;9058;52.018;4.202;2022-07-25T00:39:25;7.13;;;5.80;;
17864;SDS011;9058;52.018;4.202;2022-07-25T00:41:53;5.82;;;5.22;;
17864;SDS011;9058;52.018;4.202;2022-07-25T00:44:20;6.13;;;5.53;;
17864;SDS011;9058;52.018;4.202;2022-07-25T00:46:47;6.35;;;5.75;;
17864;SDS011;9058;52.018;4.202;2022-07-25T00:49:14;6.03;;;5.47;;
17864;SDS011;9058;52.018;4.202;2022-07-25T00:51:41;6.75;;;5.97;;
17864;SDS011;9058;52.018;4.202;2022-07-25T00:54:07;7.35;;;5.78;;
17864;SDS011;9058;52.018;4.202;2022-07-25T00:56:36;6.88;;;5.65;;
17864;SDS011;9058;52.018;4.202;2022-07-25T00:59:04;7.43;;;5.45;;
17864;SDS011;9058;52.018;4.202;2022-07-25T01:01:30;6.07;;;5.47;;
17864;SDS011;9058;52.018;4.202;2022-07-25T01:03:56;9.35;;;5.60;;
17864;SDS011;9058;52.018;4.202;2022-07-25T01:06:23;6.63;;;5.82;;
17864;SDS011;9058;52.018;4.202;2022-07-25T01:08:51;6.43;;;5.80;;
17864;SDS011;9058;52.018;4.202;2022-07-25T01:11:17;6.28;;;5.70;;
17864;SDS011;9058;52.018;4.202;2022-07-25T01:13:44;6.55;;;5.70;;
17864;SDS011;9058;52.018;4.202;2022-07-25T01:16:12;6.43;;;5.63;;
17864;SDS011;9058;52.018;4.202;2022-07-25T01:18:38;8.60;;;5.45;;
17864;SDS011;9058;52.018;4.202;2022-07-25T01:21:06;6.07;;;5.43;;
17864;SDS011;9058;52.018;4.202;2022-07-25T01:23:33;5.82;;;5.22;;
17864;SDS011;9058;52.018;4.202;2022-07-25T01:25:59;6.25;;;5.13;;
17864;SDS011;9058;52.018;4.202;2022-07-25T01:28:25;5.18;;;4.68;;
17864;SDS011;9058;52.018;4.202;2022-07-25T01:30:52;8.02;;;5.22;;
17864;SDS011;9058;52.018;4.202;2022-07-25T01:33:18;5.68;;;5.10;;
17864;SDS011;9058;52.018;4.202;2022-07-25T01:35:46;5.50;;;4.97;;
17864;SDS011;9058;52.018;4.202;2022-07-25T01:38:15;6.50;;;5.03;;
17864;SDS011;9058;52.018;4.202;2022-07-25T01:40:42;5.88;;;5.07;;
17864;SDS011;9058;52.018;4.202;2022-07-25T01:43:09;5.72;;;5.20;;
17864;SDS011;9058;52.018;4.202;2022-07-25T01:45:35;5.28;;;4.80;;
17864;SDS011;9058;52.018;4.202;2022-07-25T01:48:03;5.70;;;5.10;;
17864;SDS011;9058;52.018;4.202;2022-07-25T01:50:29;5.13;;;4.60;;
17864;SDS011;9058;52.018;4.202;2022-07-25T01:52:57;7.30;;;5.22;;
17864;SDS011;9058;52.018;4.202;2022-07-25T01:55:24;5.72;;;4.50;;
17864;SDS011;9058;52.018;4.202;2022-07-25T01:57:52;5.35;;;4.20;;
17864;SDS011;9058;52.018;4.202;2022-07-25T02:00:19;5.55;;;4.85;;
17864;SDS011;9058;52.018;4.202;2022-07-25T02:02:46;5.03;;;4.63;;
17864;SDS011;9058;52.018;4.202;2022-07-25T02:05:13;7.45;;;4.40;;
17864;SDS011;9058;52.018;4.202;2022-07-25T02:07:39;5.60;;;4.50;;
17864;SDS011;9058;52.018;4.202;2022-07-25T02:10:06;5.28;;;4.38;;
17864;SDS011;9058;52.018;4.202;2022-07-25T02:12:34;5.15;;;4.53;;
17864;SDS011;9058;52.018;4.202;2022-07-25T02:15:00;4.85;;;4.45;;
17864;SDS011;9058;52.018;4.202;2022-07-25T02:17:27;5.18;;;4.32;;
17864;SDS011;9058;52.018;4.202;2022-07-25T02:19:53;5.28;;;4.80;;
17864;SDS011;9058;52.018;4.202;2022-07-25T02:22:19;5.38;;;4.50;;
17864;SDS011;9058;52.018;4.202;2022-07-25T02:24:46;5.75;;;4.43;;
17864;SDS011;9058;52.018;4.202;2022-07-25T02:27:12;6.97;;;4.88;;
17864;SDS011;9058;52.018;4.202;2022-07-25T02:29:40;4.82;;;4.43;;
17864;SDS011;9058;52.018;4.202;2022-07-25T02:32:06;5.53;;;4.68;;
17864;SDS011;9058;52.018;4.202;2022-07-25T02:34:33;5.22;;;4.47;;
17864;SDS011;9058;52.018;4.202;2022-07-25T02:36:59;5.15;;;4.35;;
17864;SDS011;9058;52.018;4.202;2022-07-25T02:39:25;4.68;;;4.28;;
17864;SDS011;9058;52.018;4.202;2022-07-25T02:41:52;7.85;;;4.53;;
17864;SDS011;9058;52.018;4.202;2022-07-25T02:44:18;5.25;;;4.20;;
17864;SDS011;9058;52.018;4.202;2022-07-25T02:46:46;4.30;;;3.75;;
17864;SDS011;9058;52.018;4.202;2022-07-25T02:49:12;5.07;;;4.53;;
17864;SDS011;9058;52.018;4.202;2022-07-25T02:51:39;4.88;;;3.88;;
17864;SDS011;9058;52.018;4.202;2022-07-25T02:54:05;4.65;;;3.95;;
17864;SDS011;9058;52.018;4.202;2022-07-25T02:56:31;4.82;;;4.20;;
17864;SDS011;9058;52.018;4.202;2022-07-25T02:58:58;4.03;;;3.63;;
17864;SDS011;9058;52.018;4.202;2022-07-25T03:01:36;4.88;;;4.22;;
17864;SDS011;9058;52.018;4.202;2022-07-25T03:04:05;6.70;;;3.72;;
17864;SDS011;9058;52.018;4.202;2022-07-25T03:06:33;4.75;;;3.97;;
17864;SDS011;9058;52.018;4.202;2022-07-25T03:08:59;7.53;;;3.50;;
17864;SDS011;9058;52.018;4.202;2022-07-25T03:11:25;4.53;;;3.97;;
17864;SDS011;9058;52.018;4.202;2022-07-25T03:13:52;3.78;;;3.10;;
17864;SDS011;9058;52.018;4.202;2022-07-25T03:16:19;5.32;;;3.33;;
17864;SDS011;9058;52.018;4.202;2022-07-25T03:18:45;3.58;;;3.25;;
17864;SDS011;9058;52.018;4.202;2022-07-25T03:21:14;5.10;;;3.28;;
17864;SDS011;9058;52.018;4.202;2022-07-25T03:23:40;5.35;;;3.40;;
17864;SDS011;9058;52.018;4.202;2022-07-25T03:26:09;6.30;;;3.65;;
17864;SDS011;9058;52.018;4.202;2022-07-25T03:28:35;4.30;;;3.88;;
17864;SDS011;9058;52.018;4.202;2022-07-25T03:31:02;6.43;;;3.42;;
17864;SDS011;9058;52.018;4.202;2022-07-25T03:33:28;5.47;;;3.47;;
17864;SDS011;9058;52.018;4.202;2022-07-25T03:35:54;7.35;;;3.90;;
17864;SDS011;9058;52.018;4.202;2022-07-25T03:38:22;5.15;;;3.35;;
17864;SDS011;9058;52.018;4.202;2022-07-25T03:40:49;4.63;;;3.47;;
17864;SDS011;9058;52.018;4.202;2022-07-25T03:43:15;4.43;;;2.85;;
17864;SDS011;9058;52.018;4.202;2022-07-25T03:45:42;3.38;;;2.80;;
17864;SDS011;9058;52.018;4.202;2022-07-25T03:48:11;3.33;;;2.78;;
17864;SDS011;9058;52.018;4.202;2022-07-25T03:50:37;2.88;;;2.40;;
17864;SDS011;9058;52.018;4.202;2022-07-25T03:53:04;9.10;;;2.45;;
17864;SDS011;9058;52.018;4.202;2022-07-25T03:55:31;2.70;;;2.50;;
17864;SDS011;9058;52.018;4.202;2022-07-25T03:57:58;3.63;;;2.60;;
17864;SDS011;9058;52.018;4.202;2022-07-25T04:00:24;4.28;;;2.63;;
17864;SDS011;9058;52.018;4.202;2022-07-25T04:02:51;2.70;;;2.50;;
17864;SDS011;9058;52.018;4.202;2022-07-25T04:05:19;3.63;;;2.60;;
17864;SDS011;9058;52.018;4.202;2022-07-25T04:07:45;5.63;;;2.58;;
17864;SDS011;9058;52.018;4.202;2022-07-25T04:10:11;3.50;;;2.50;;
17864;SDS011;9058;52.018;4.202;2022-07-25T04:12:41;3.17;;;2.55;;
17864;SDS011;9058;52.018;4.202;2022-07-25T04:15:08;2.40;;;2.20;;
17864;SDS011;9058;52.018;4.202;2022-07-25T04:17:35;2.53;;;2.33;;
17864;SDS011;9058;52.018;4.202;2022-07-25T04:20:01;2.28;;;2.08;;
17864;SDS011;9058;52.018;4.202;2022-07-25T04:22:27;3.92;;;2.30;;
17864;SDS011;9058;52.018;4.202;2022-07-25T04:24:55;2.20;;;2.00;;
17864;SDS011;9058;52.018;4.202;2022-07-25T04:27:21;4.13;;;2.00;;
17864;SDS011;9058;52.018;4.202;2022-07-25T04:29:52;1.73;;;1.60;;
17864;SDS011;9058;52.018;4.202;2022-07-25T04:32:18;3.15;;;1.88;;
17864;SDS011;9058;52.018;4.202;2022-07-25T04:34:44;1.52;;;1.42;;
17864;SDS011;9058;52.018;4.202;2022-07-25T04:37:11;1.60;;;1.30;;
17864;SDS011;9058;52.018;4.202;2022-07-25T04:39:37;2.03;;;1.42;;
17864;SDS011;9058;52.018;4.202;2022-07-25T04:42:04;2.95;;;1.45;;
17864;SDS011;9058;52.018;4.202;2022-07-25T04:44:30;2.45;;;1.48;;
17864;SDS011;9058;52.018;4.202;2022-07-25T04:46:59;2.47;;;1.83;;
17864;SDS011;9058;52.018;4.202;2022-07-25T04:49:25;2.00;;;1.55;;
17864;SDS011;9058;52.018;4.202;2022-07-25T04:51:52;1.88;;;1.60;;
17864;SDS011;9058;52.018;4.202;2022-07-25T04:54:18;1.67;;;1.30;;
17864;SDS011;9058;52.018;4.202;2022-07-25T04:56:45;1.92;;;1.42;;
17864;SDS011;9058;52.018;4.202;2022-07-25T04:59:12;3.67;;;1.70;;
17864;SDS011;9058;52.018;4.202;2022-07-25T05:01:38;2.47;;;1.42;;
17864;SDS011;9058;52.018;4.202;2022-07-25T05:04:07;2.25;;;1.63;;
17864;SDS011;9058;52.018;4.202;2022-07-25T05:06:34;3.20;;;1.38;;
17864;SDS011;9058;52.018;4.202;2022-07-25T05:09:00;3.15;;;1.83;;
17864;SDS011;9058;52.018;4.202;2022-07-25T05:11:26;2.60;;;1.73;;
17864;SDS011;9058;52.018;4.202;2022-07-25T05:13:53;4.38;;;1.70;;
17864;SDS011;9058;52.018;4.202;2022-07-25T05:16:20;5.05;;;1.38;;
17864;SDS011;9058;52.018;4.202;2022-07-25T05:18:46;4.07;;;1.80;;
17864;SDS011;9058;52.018;4.202;2022-07-25T05:21:17;2.45;;;1.60;;
17864;SDS011;9058;52.018;4.202;2022-07-25T05:23:44;7.13;;;1.73;;
17864;SDS011;9058;52.018;4.202;2022-07-25T05:26:10;5.90;;;2.53;;
17864;SDS011;9058;52.018;4.202;2022-07-25T05:28:36;5.53;;;1.63;;
17864;SDS011;9058;52.018;4.202;2022-07-25T05:31:03;5.85;;;1.60;;
17864;SDS011;9058;52.018;4.202;2022-07-25T05:33:29;5.63;;;1.58;;
17864;SDS011;9058;52.018;4.202;2022-07-25T05:35:56;6.07;;;2.00;;
17864;SDS011;9058;52.018;4.202;2022-07-25T05:38:24;5.57;;;1.40;;
17864;SDS011;9058;52.018;4.202;2022-07-25T05:40:50;3.67;;;1.92;;
17864;SDS011;9058;52.018;4.202;2022-07-25T05:43:17;9.02;;;2.35;;
17864;SDS011;9058;52.018;4.202;2022-07-25T05:45:43;6.53;;;1.90;;
17864;SDS011;9058;52.018;4.202;2022-07-25T05:48:11;5.50;;;1.50;;
17864;SDS011;9058;52.018;4.202;2022-07-25T05:50:37;6.88;;;1.75;;
17864;SDS011;9058;52.018;4.202;2022-07-25T05:53:04;6.10;;;1.90;;
17864;SDS011;9058;52.018;4.202;2022-07-25T05:55:31;7.47;;;2.20;;
17864;SDS011;9058;52.018;4.202;2022-07-25T05:57:58;6.63;;;2.05;;
17864;SDS011;9058;52.018;4.202;2022-07-25T06:00:24;5.28;;;1.90;;
17864;SDS011;9058;52.018;4.202;2022-07-25T06:02:51;4.97;;;1.77;;
17864;SDS011;9058;52.018;4.202;2022-07-25T06:05:18;10.35;;;2.25;;
17864;SDS011;9058;52.018;4.202;2022-07-25T06:07:44;11.90;;;1.98;;
17864;SDS011;9058;52.018;4.202;2022-07-25T06:10:11;5.22;;;1.90;;
17864;SDS011;9058;52.018;4.202;2022-07-25T06:12:39;5.47;;;1.75;;
17864;SDS011;9058;52.018;4.202;2022-07-25T06:15:06;5.40;;;2.10;;
17864;SDS011;9058;52.018;4.202;2022-07-25T06:17:33;3.00;;;1.73;;
17864;SDS011;9058;52.018;4.202;2022-07-25T06:19:59;6.70;;;2.00;;
17864;SDS011;9058;52.018;4.202;2022-07-25T06:22:26;7.75;;;2.08;;
17864;SDS011;9058;52.018;4.202;2022-07-25T06:24:52;6.88;;;1.80;;
17864;SDS011;9058;52.018;4.202;2022-07-25T06:27:19;7.18;;;2.47;;
17864;SDS011;9058;52.018;4.202;2022-07-25T06:29:47;7.10;;;1.90;;
17864;SDS011;9058;52.018;4.202;2022-07-25T06:32:13;4.60;;;2.05;;
17864;SDS011;9058;52.018;4.202;2022-07-25T06:34:39;5.80;;;2.00;;
17864;SDS011;9058;52.018;4.202;2022-07-25T06:37:06;5.63;;;1.85;;
17864;SDS011;9058;52.018;4.202;2022-07-25T06:39:32;6.88;;;2.10;;
17864;SDS011;9058;52.018;4.202;2022-07-25T06:42:00;5.80;;;1.90;;
17864;SDS011;9058;52.018;4.202;2022-07-25T06:44:30;5.85;;;2.17;;
17864;SDS011;9058;52.018;4.202;2022-07-25T06:46:58;8.32;;;1.92;;
17864;SDS011;9058;52.018;4.202;2022-07-25T06:49:24;5.45;;;2.33;;
17864;SDS011;9058;52.018;4.202;2022-07-25T06:51:51;4.97;;;1.67;;
17864;SDS011;9058;52.018;4.202;2022-07-25T06:54:18;5.63;;;1.80;;
17864;SDS011;9058;52.018;4.202;2022-07-25T06:56:44;7.43;;;2.10;;
17864;SDS011;9058;52.018;4.202;2022-07-25T06:59:12;5.68;;;2.00;;
17864;SDS011;9058;52.018;4.202;2022-07-25T07:01:38;6.15;;;1.50;;
17864;SDS011;9058;52.018;4.202;2022-07-25T07:04:06;4.75;;;1.30;;
17864;SDS011;9058;52.018;4.202;2022-07-25T07:06:32;5.40;;;1.92;;
17864;SDS011;9058;52.018;4.202;2022-07-25T07:09:00;5.90;;;1.75;;
17864;SDS011;9058;52.018;4.202;2022-07-25T07:11:26;5.85;;;1.60;;
17864;SDS011;9058;52.018;4.202;2022-07-25T07:13:53;5.55;;;1.65;;
17864;SDS011;9058;52.018;4.202;2022-07-25T07:16:19;4.20;;;1.38;;
17864;SDS011;9058;52.018;4.202;2022-07-25T07:18:45;5.28;;;1.60;;
17864;SDS011;9058;52.018;4.202;2022-07-25T07:21:13;10.30;;;2.00;;
17864;SDS011;9058;52.018;4.202;2022-07-25T07:23:40;6.40;;;2.08;;
17864;SDS011;9058;52.018;4.202;2022-07-25T07:26:06;4.32;;;1.58;;
17864;SDS011;9058;52.018;4.202;2022-07-25T07:28:33;4.68;;;1.30;;
17864;SDS011;9058;52.018;4.202;2022-07-25T07:30:59;5.68;;;1.77;;
17864;SDS011;9058;52.018;4.202;2022-07-25T07:33:25;4.25;;;1.73;;
17864;SDS011;9058;52.018;4.202;2022-07-25T07:35:52;5.70;;;1.60;;
17864;SDS011;9058;52.018;4.202;2022-07-25T07:38:22;5.03;;;1.60;;
17864;SDS011;9058;52.018;4.202;2022-07-25T07:40:48;3.97;;;1.50;;
17864;SDS011;9058;52.018;4.202;2022-07-25T07:43:15;6.15;;;1.95;;
17864;SDS011;9058;52.018;4.202;2022-07-25T07:45:42;7.70;;;1.77;;
17864;SDS011;9058;52.018;4.202;2022-07-25T07:48:09;3.75;;;1.50;;
17864;SDS011;9058;52.018;4.202;2022-07-25T07:50:36;5.38;;;2.10;;
17864;SDS011;9058;52.018;4.202;2022-07-25T07:53:03;5.13;;;1.83;;
17864;SDS011;9058;52.018;4.202;2022-07-25T07:55:32;5.97;;;1.60;;
17864;SDS011;9058;52.018;4.202;2022-07-25T07:58:10;6.93;;;1.98;;
17864;SDS011;9058;52.018;4.202;2022-07-25T08:00:39;5.60;;;2.08;;
17864;SDS011;9058;52.018;4.202;2022-07-25T08:03:06;6.80;;;1.92;;
17864;SDS011;9058;52.018;4.202;2022-07-25T08:05:34;4.93;;;1.60;;
17864;SDS011;9058;52.018;4.202;2022-07-25T08:08:01;5.22;;;1.70;;
17864;SDS011;9058;52.018;4.202;2022-07-25T08:10:28;6.78;;;1.95;;
17864;SDS011;9058;52.018;4.202;2022-07-25T08:12:56;8.52;;;1.48;;
17864;SDS011;9058;52.018;4.202;2022-07-25T08:15:24;5.60;;;2.00;;
17864;SDS011;9058;52.018;4.202;2022-07-25T08:17:51;6.30;;;1.80;;
17864;SDS011;9058;52.018;4.202;2022-07-25T08:20:18;9.23;;;2.30;;
17864;SDS011;9058;52.018;4.202;2022-07-25T08:22:47;7.75;;;1.98;;
17864;SDS011;9058;52.018;4.202;2022-07-25T08:25:14;9.73;;;2.17;;
17864;SDS011;9058;52.018;4.202;2022-07-25T08:27:41;7.45;;;2.20;;
17864;SDS011;9058;52.018;4.202;2022-07-25T08:30:09;5.03;;;2.17;;
17864;SDS011;9058;52.018;4.202;2022-07-25T08:32:44;5.28;;;2.33;;
17864;SDS011;9058;52.018;4.202;2022-07-25T08:35:11;6.38;;;1.80;;
17864;SDS011;9058;52.018;4.202;2022-07-25T08:37:37;11.10;;;2.42;;
17864;SDS011;9058;52.018;4.202;2022-07-25T08:40:04;8.73;;;2.00;;
17864;SDS011;9058;52.018;4.202;2022-07-25T08:42:31;6.05;;;1.90;;
17864;SDS011;9058;52.018;4.202;2022-07-25T08:44:59;6.32;;;2.08;;
17864;SDS011;9058;52.018;4.202;2022-07-25T08:47:30;7.55;;;2.30;;
17864;SDS011;9058;52.018;4.202;2022-07-25T08:49:56;7.80;;;2.13;;
17864;SDS011;9058;52.018;4.202;2022-07-25T08:52:23;8.00;;;2.35;;
17864;SDS011;9058;52.018;4.202;2022-07-25T08:54:51;10.15;;;2.47;;
17864;SDS011;9058;52.018;4.202;2022-07-25T08:57:17;9.85;;;2.65;;
17864;SDS011;9058;52.018;4.202;2022-07-25T08:59:43;6.43;;;2.65;;
17864;SDS011;9058;52.018;4.202;2022-07-25T09:02:11;12.00;;;3.08;;
17864;SDS011;9058;52.018;4.202;2022-07-25T09:04:39;7.78;;;2.67;;
17864;SDS011;9058;52.018;4.202;2022-07-25T09:07:07;11.32;;;2.47;;
17864;SDS011;9058;52.018;4.202;2022-07-25T09:09:34;9.23;;;2.45;;
17864;SDS011;9058;52.018;4.202;2022-07-25T09:12:02;7.75;;;2.40;;
17864;SDS011;9058;52.018;4.202;2022-07-25T09:14:29;6.05;;;2.50;;
17864;SDS011;9058;52.018;4.202;2022-07-25T09:16:56;8.88;;;2.80;;
17864;SDS011;9058;52.018;4.202;2022-07-25T09:19:23;11.65;;;2.97;;
17864;SDS011;9058;52.018;4.202;2022-07-25T09:21:58;7.63;;;2.40;;
17864;SDS011;9058;52.018;4.202;2022-07-25T09:24:25;9.23;;;2.70;;
17864;SDS011;9058;52.018;4.202;2022-07-25T09:26:52;8.65;;;2.58;;
17864;SDS011;9058;52.018;4.202;2022-07-25T09:29:20;10.27;;;2.80;;
17864;SDS011;9058;52.018;4.202;2022-07-25T09:31:47;10.20;;;2.60;;
17864;SDS011;9058;52.018;4.202;2022-07-25T09:34:15;8.48;;;2.42;;
17864;SDS011;9058;52.018;4.202;2022-07-25T09:36:49;9.35;;;2.67;;
17864;SDS011;9058;52.018;4.202;2022-07-25T09:39:17;11.60;;;2.60;;
17864;SDS011;9058;52.018;4.202;2022-07-25T09:41:44;7.80;;;2.50;;
17864;SDS011;9058;52.018;4.202;2022-07-25T09:44:14;8.68;;;2.70;;
17864;SDS011;9058;52.018;4.202;2022-07-25T09:46:41;8.90;;;2.60;;
17864;SDS011;9058;52.018;4.202;2022-07-25T09:49:07;9.90;;;2.53;;
17864;SDS011;9058;52.018;4.202;2022-07-25T09:51:34;8.93;;;2.70;;
17864;SDS011;9058;52.018;4.202;2022-07-25T09:54:00;7.55;;;2.35;;
17864;SDS011;9058;52.018;4.202;2022-07-25T09:56:29;9.35;;;2.28;;
17864;SDS011;9058;52.018;4.202;2022-07-25T09:58:57;8.50;;;2.65;;
17864;SDS011;9058;52.018;4.202;2022-07-25T10:01:26;7.55;;;2.78;;
17864;SDS011;9058;52.018;4.202;2022-07-25T10:03:59;10.85;;;2.90;;
17864;SDS011;9058;52.018;4.202;2022-07-25T10:06:29;8.68;;;2.70;;
17864;SDS011;9058;52.018;4.202;2022-07-25T10:08:59;8.30;;;2.33;;
17864;SDS011;9058;52.018;4.202;2022-07-25T10:11:26;8.63;;;2.40;;
17864;SDS011;9058;52.018;4.202;2022-07-25T10:13:55;7.85;;;2.70;;
17864;SDS011;9058;52.018;4.202;2022-07-25T10:16:22;9.25;;;2.63;;
17864;SDS011;9058;52.018;4.202;2022-07-25T10:18:49;8.10;;;2.78;;
17864;SDS011;9058;52.018;4.202;2022-07-25T10:21:16;10.20;;;2.92;;
17864;SDS011;9058;52.018;4.202;2022-07-25T10:23:43;11.13;;;2.95;;
17864;SDS011;9058;52.018;4.202;2022-07-25T10:26:11;8.52;;;2.67;;
17864;SDS011;9058;52.018;4.202;2022-07-25T10:28:40;7.18;;;2.38;;
17864;SDS011;9058;52.018;4.202;2022-07-25T10:31:15;9.65;;;3.15;;
17864;SDS011;9058;52.018;4.202;2022-07-25T10:33:41;9.48;;;3.03;;
17864;SDS011;9058;52.018;4.202;2022-07-25T10:36:08;8.60;;;3.30;;
17864;SDS011;9058;52.018;4.202;2022-07-25T10:38:37;13.27;;;3.95;;
17864;SDS011;9058;52.018;4.202;2022-07-25T10:41:05;11.90;;;3.20;;
17864;SDS011;9058;52.018;4.202;2022-07-25T10:43:35;10.15;;;3.38;;
17864;SDS011;9058;52.018;4.202;2022-07-25T10:46:09;14.95;;;3.35;;
17864;SDS011;9058;52.018;4.202;2022-07-25T10:48:37;8.02;;;2.67;;
17864;SDS011;9058;52.018;4.202;2022-07-25T10:51:04;9.18;;;2.83;;
17864;SDS011;9058;52.018;4.202;2022-07-25T10:53:32;8.68;;;2.90;;
17864;SDS011;9058;52.018;4.202;2022-07-25T10:56:02;10.32;;;3.10;;
17864;SDS011;9058;52.018;4.202;2022-07-25T10:58:39;10.60;;;2.72;;
17864;SDS011;9058;52.018;4.202;2022-07-25T11:01:06;12.10;;;3.13;;
17864;SDS011;9058;52.018;4.202;2022-07-25T11:03:32;11.45;;;2.42;;
17864;SDS011;9058;52.018;4.202;2022-07-25T11:06:01;14.95;;;3.20;;
17864;SDS011;9058;52.018;4.202;2022-07-25T11:08:30;9.75;;;2.85;;
17864;SDS011;9058;52.018;4.202;2022-07-25T11:10:57;6.88;;;2.38;;
17864;SDS011;9058;52.018;4.202;2022-07-25T11:13:23;10.23;;;2.55;;
17864;SDS011;9058;52.018;4.202;2022-07-25T11:15:50;7.35;;;2.17;;
17864;SDS011;9058;52.018;4.202;2022-07-25T11:18:29;7.70;;;2.00;;
17864;SDS011;9058;52.018;4.202;2022-07-25T11:20:57;9.30;;;2.47;;
17864;SDS011;9058;52.018;4.202;2022-07-25T11:23:24;12.05;;;2.58;;
17864;SDS011;9058;52.018;4.202;2022-07-25T11:25:51;8.82;;;3.03;;
17864;SDS011;9058;52.018;4.202;2022-07-25T11:28:18;6.82;;;1.70;;
17864;SDS011;9058;52.018;4.202;2022-07-25T11:30:44;7.20;;;2.30;;
17864;SDS011;9058;52.018;4.202;2022-07-25T11:33:12;9.20;;;2.60;;
17864;SDS011;9058;52.018;4.202;2022-07-25T11:35:39;8.23;;;2.35;;
17864;SDS011;9058;52.018;4.202;2022-07-25T11:38:06;14.18;;;2.92;;
17864;SDS011;9058;52.018;4.202;2022-07-25T11:40:40;6.60;;;2.38;;
17864;SDS011;9058;52.018;4.202;2022-07-25T11:43:07;8.40;;;2.45;;
17864;SDS011;9058;52.018;4.202;2022-07-25T11:45:54;9.80;;;2.40;;
17864;SDS011;9058;52.018;4.202;2022-07-25T11:48:21;11.10;;;2.55;;
17864;SDS011;9058;52.018;4.202;2022-07-25T11:50:54;10.25;;;2.95;;
17864;SDS011;9058;52.018;4.202;2022-07-25T11:53:21;7.65;;;2.05;;
17864;SDS011;9058;52.018;4.202;2022-07-25T11:55:48;7.45;;;2.17;;
17864;SDS011;9058;52.018;4.202;2022-07-25T11:58:16;11.93;;;2.53;;
17864;SDS011;9058;52.018;4.202;2022-07-25T12:00:45;8.05;;;2.30;;
17864;SDS011;9058;52.018;4.202;2022-07-25T12:03:13;7.22;;;2.03;;
17864;SDS011;9058;52.018;4.202;2022-07-25T12:05:40;6.60;;;1.98;;
17864;SDS011;9058;52.018;4.202;2022-07-25T12:08:07;10.00;;;2.65;;
17864;SDS011;9058;52.018;4.202;2022-07-25T12:10:34;8.90;;;1.98;;
17864;SDS011;9058;52.018;4.202;2022-07-25T12:13:02;5.88;;;1.50;;
17864;SDS011;9058;52.018;4.202;2022-07-25T12:15:31;9.55;;;2.10;;
17864;SDS011;9058;52.018;4.202;2022-07-25T12:17:57;9.70;;;2.20;;
17864;SDS011;9058;52.018;4.202;2022-07-25T12:20:26;6.18;;;1.70;;
17864;SDS011;9058;52.018;4.202;2022-07-25T12:22:53;9.02;;;2.17;;
17864;SDS011;9058;52.018;4.202;2022-07-25T12:25:20;14.77;;;3.25;;
17864;SDS011;9058;52.018;4.202;2022-07-25T12:27:46;7.22;;;2.63;;
17864;SDS011;9058;52.018;4.202;2022-07-25T12:30:14;5.32;;;1.70;;
17864;SDS011;9058;52.018;4.202;2022-07-25T12:32:41;9.57;;;2.17;;
17864;SDS011;9058;52.018;4.202;2022-07-25T12:35:08;9.13;;;2.55;;
17864;SDS011;9058;52.018;4.202;2022-07-25T12:37:35;6.72;;;1.92;;
17864;SDS011;9058;52.018;4.202;2022-07-25T12:40:01;8.23;;;2.30;;
17864;SDS011;9058;52.018;4.202;2022-07-25T12:42:29;10.13;;;2.40;;
17864;SDS011;9058;52.018;4.202;2022-07-25T12:44:56;9.57;;;2.90;;
17864;SDS011;9058;52.018;4.202;2022-07-25T12:47:23;12.60;;;2.42;;
17864;SDS011;9058;52.018;4.202;2022-07-25T12:49:50;11.75;;;2.83;;
17864;SDS011;9058;52.018;4.202;2022-07-25T12:52:16;6.10;;;2.00;;
17864;SDS011;9058;52.018;4.202;2022-07-25T12:54:43;4.10;;;1.50;;
17864;SDS011;9058;52.018;4.202;2022-07-25T12:57:10;6.47;;;1.98;;
17864;SDS011;9058;52.018;4.202;2022-07-25T12:59:36;11.48;;;2.20;;
17864;SDS011;9058;52.018;4.202;2022-07-25T13:02:03;8.45;;;1.88;;
17864;SDS011;9058;52.018;4.202;2022-07-25T13:04:30;10.30;;;2.53;;
17864;SDS011;9058;52.018;4.202;2022-07-25T13:06:57;7.90;;;1.70;;
17864;SDS011;9058;52.018;4.202;2022-07-25T13:09:24;7.38;;;2.00;;
17864;SDS011;9058;52.018;4.202;2022-07-25T13:11:51;7.90;;;1.98;;
17864;SDS011;9058;52.018;4.202;2022-07-25T13:14:18;8.23;;;1.90;;
17864;SDS011;9058;52.018;4.202;2022-07-25T13:16:45;9.35;;;2.22;;
17864;SDS011;9058;52.018;4.202;2022-07-25T13:19:12;12.05;;;2.47;;
17864;SDS011;9058;52.018;4.202;2022-07-25T13:21:40;12.75;;;2.50;;
17864;SDS011;9058;52.018;4.202;2022-07-25T13:24:06;8.68;;;1.92;;
17864;SDS011;9058;52.018;4.202;2022-07-25T13:26:33;7.18;;;1.75;;
17864;SDS011;9058;52.018;4.202;2022-07-25T13:29:00;11.00;;;2.97;;
17864;SDS011;9058;52.018;4.202;2022-07-25T13:31:26;9.63;;;1.77;;
17864;SDS011;9058;52.018;4.202;2022-07-25T13:33:53;8.10;;;1.80;;
17864;SDS011;9058;52.018;4.202;2022-07-25T13:36:20;5.88;;;1.88;;
17864;SDS011;9058;52.018;4.202;2022-07-25T13:38:51;10.25;;;2.17;;
17864;SDS011;9058;52.018;4.202;2022-07-25T13:41:18;9.25;;;1.80;;
17864;SDS011;9058;52.018;4.202;2022-07-25T13:43:44;8.80;;;2.58;;
17864;SDS011;9058;52.018;4.202;2022-07-25T13:46:11;7.82;;;1.63;;
17864;SDS011;9058;52.018;4.202;2022-07-25T13:48:38;9.50;;;1.60;;
17864;SDS011;9058;52.018;4.202;2022-07-25T13:51:04;9.68;;;1.98;;
17864;SDS011;9058;52.018;4.202;2022-07-25T13:53:31;6.72;;;2.00;;
17864;SDS011;9058;52.018;4.202;2022-07-25T13:55:59;9.35;;;1.65;;
17864;SDS011;9058;52.018;4.202;2022-07-25T13:58:25;9.27;;;1.80;;
17864;SDS011;9058;52.018;4.202;2022-07-25T14:00:52;8.40;;;1.63;;
17864;SDS011;9058;52.018;4.202;2022-07-25T14:03:18;7.82;;;2.20;;
17864;SDS011;9058;52.018;4.202;2022-07-25T14:05:45;9.13;;;1.92;;
17864;SDS011;9058;52.018;4.202;2022-07-25T14:08:11;12.55;;;2.70;;
17864;SDS011;9058;52.018;4.202;2022-07-25T14:10:37;7.90;;;2.05;;
17864;SDS011;9058;52.018;4.202;2022-07-25T14:13:05;10.32;;;2.67;;
17864;SDS011;9058;52.018;4.202;2022-07-25T14:15:32;9.13;;;1.60;;
17864;SDS011;9058;52.018;4.202;2022-07-25T14:17:58;7.90;;;1.70;;
17864;SDS011;9058;52.018;4.202;2022-07-25T14:20:24;8.90;;;1.85;;
17864;SDS011;9058;52.018;4.202;2022-07-25T14:22:51;9.18;;;1.90;;
17864;SDS011;9058;52.018;4.202;2022-07-25T14:25:18;8.13;;;1.77;;
17864;SDS011;9058;52.018;4.202;2022-07-25T14:27:44;8.13;;;1.83;;
17864;SDS011;9058;52.018;4.202;2022-07-25T14:30:13;11.32;;;2.15;;
17864;SDS011;9058;52.018;4.202;2022-07-25T14:32:39;13.02;;;2.30;;
17864;SDS011;9058;52.018;4.202;2022-07-25T14:35:06;9.07;;;1.88;;
17864;SDS011;9058;52.018;4.202;2022-07-25T14:37:32;12.63;;;2.17;;
17864;SDS011;9058;52.018;4.202;2022-07-25T14:39:59;13.30;;;2.00;;
17864;SDS011;9058;52.018;4.202;2022-07-25T14:42:27;13.90;;;2.28;;
17864;SDS011;9058;52.018;4.202;2022-07-25T14:44:53;8.00;;;2.00;;
17864;SDS011;9058;52.018;4.202;2022-07-25T14:47:24;8.70;;;1.95;;
17864;SDS011;9058;52.018;4.202;2022-07-25T14:49:50;12.32;;;2.05;;
17864;SDS011;9058;52.018;4.202;2022-07-25T14:52:16;12.40;;;1.60;;
17864;SDS011;9058;52.018;4.202;2022-07-25T14:54:43;11.60;;;1.50;;
17864;SDS011;9058;52.018;4.202;2022-07-25T14:57:09;7.47;;;1.60;;
17864;SDS011;9058;52.018;4.202;2022-07-25T14:59:35;12.05;;;1.83;;